Time;durP1;ratioP1;P1;durP2;ratioP2;P2;SDS_P1;SDS_P2;PMS_P1;PMS_P2;Temp;Humidity;BMP_temperature;BMP_pressure;BME280_temperature;BME280_humidity;BME280_pressure;Samples;Min_cycle;Max_cycle;Signal;HPM_P1;HPM_P2
2022/04/07 00:00:13;;;;;;;13.02;11.13;;;25.20;99.90;;;;;;5053845;28;20078;-65
2022/04/07 00:02:40;;;;;;;15.95;13.05;;;25.20;99.90;;;;;;5056661;28;20469;-65
2022/04/07 00:05:07;;;;;;;18.17;16.17;;;25.20;99.90;;;;;;5051438;28;20028;-66
2022/04/07 00:07:33;;;;;;;16.02;14.02;;;25.30;99.90;;;;;;5037675;28;20351;-65
2022/04/07 00:10:00;;;;;;;14.88;13.15;;;25.30;99.90;;;;;;5042402;28;20029;-64
2022/04/07 00:12:27;;;;;;;16.10;10.02;;;25.30;99.90;;;;;;5057594;28;20052;-65
2022/04/07 00:14:53;;;;;;;13.05;8.75;;;25.40;99.90;;;;;;5057318;28;20592;-65
2022/04/07 00:17:20;;;;;;;15.43;9.10;;;25.40;99.90;;;;;;5049930;28;20025;-65
2022/04/07 00:19:47;;;;;;;13.52;9.02;;;25.50;99.90;;;;;;5053121;28;20035;-65
2022/04/07 00:22:14;;;;;;;19.70;8.65;;;25.40;99.90;;;;;;5047219;28;20071;-66
2022/04/07 00:24:42;;;;;;;10.15;8.35;;;25.50;99.90;;;;;;5039532;28;20017;-66
2022/04/07 00:27:09;;;;;;;9.60;7.30;;;25.40;99.90;;;;;;5050395;28;20025;-67
2022/04/07 00:29:36;;;;;;;9.32;6.68;;;25.40;99.90;;;;;;5057087;28;20057;-66
2022/04/07 00:32:05;;;;;;;7.80;6.72;;;25.30;99.90;;;;;;5056568;28;20065;-67
2022/04/07 00:34:33;;;;;;;8.23;7.43;;;25.40;99.90;;;;;;5057237;28;20563;-66
2022/04/07 00:37:00;;;;;;;11.80;9.25;;;25.40;99.90;;;;;;5056924;28;20024;-66
2022/04/07 00:39:26;;;;;;;13.68;9.93;;;25.40;99.90;;;;;;5056598;28;20048;-66
2022/04/07 00:41:53;;;;;;;15.85;11.15;;;25.50;99.90;;;;;;5056574;28;20025;-65
2022/04/07 00:44:22;;;;;;;14.73;11.27;;;25.50;99.90;;;;;;5056360;28;20025;-65
2022/04/07 00:46:49;;;;;;;13.18;10.25;;;25.50;99.90;;;;;;5056371;28;20025;-66
2022/04/07 00:49:18;;;;;;;16.63;12.20;;;25.50;99.90;;;;;;5051127;28;20269;-66
2022/04/07 00:51:45;;;;;;;16.10;13.32;;;25.50;99.90;;;;;;5048790;28;20020;-66
2022/04/07 00:54:13;;;;;;;20.70;14.73;;;25.50;99.90;;;;;;5046331;28;20087;-66
2022/04/07 00:56:42;;;;;;;19.23;13.90;;;25.50;99.90;;;;;;5044275;28;20025;-65
2022/04/07 00:59:11;;;;;;;16.25;14.52;;;25.60;99.90;;;;;;5045583;28;20466;-65
2022/04/07 01:01:37;;;;;;;19.33;14.90;;;25.60;99.90;;;;;;5047182;28;20136;-64
2022/04/07 01:04:04;;;;;;;21.27;17.45;;;25.60;99.90;;;;;;5041307;28;20355;-67
2022/04/07 01:06:31;;;;;;;22.80;20.45;;;25.60;99.90;;;;;;5036399;28;20386;-68
2022/04/07 01:08:58;;;;;;;25.30;22.45;;;25.60;99.90;;;;;;5035990;28;20383;-65
2022/04/07 01:11:29;;;;;;;25.17;21.58;;;25.70;99.90;;;;;;5049624;28;20037;-67
2022/04/07 01:13:56;;;;;;;26.42;21.80;;;25.70;99.90;;;;;;5053076;28;20037;-66
2022/04/07 01:16:27;;;;;;;28.40;23.90;;;25.70;99.90;;;;;;5056501;28;20465;-65
2022/04/07 01:18:55;;;;;;;28.53;22.57;;;25.70;99.90;;;;;;5056070;28;20080;-65
2022/04/07 01:21:23;;;;;;;34.78;24.45;;;25.70;99.90;;;;;;5055484;28;20774;-65
2022/04/07 01:24:11;;;;;;;33.90;28.60;;;25.70;99.90;;;;;;5055640;28;20028;-64
2022/04/07 01:26:39;;;;;;;44.35;33.75;;;25.70;99.90;;;;;;5048552;28;20018;-65
2022/04/07 01:29:11;;;;;;;44.30;36.30;;;25.70;99.90;;;;;;5046622;28;20029;-65
2022/04/07 01:31:39;;;;;;;55.78;42.22;;;25.70;99.90;;;;;;5038427;28;20061;-65
2022/04/07 01:34:09;;;;;;;47.75;39.53;;;25.80;99.90;;;;;;5038051;28;20035;-64
2022/04/07 01:36:40;;;;;;;35.67;31.77;;;25.70;99.90;;;;;;5048034;28;20402;-65
2022/04/07 01:39:08;;;;;;;39.25;33.28;;;25.80;99.90;;;;;;5055166;28;20044;-64
2022/04/07 01:41:38;;;;;;;39.28;35.03;;;25.80;99.90;;;;;;5055081;28;20478;-67
2022/04/07 01:44:05;;;;;;;43.05;37.97;;;25.80;99.90;;;;;;5055646;28;20021;-65
2022/04/07 01:46:33;;;;;;;45.13;40.33;;;25.80;99.90;;;;;;5055352;28;20021;-66
2022/04/07 01:49:02;;;;;;;43.75;38.88;;;25.80;99.90;;;;;;5055153;28;20490;-68
2022/04/07 01:51:29;;;;;;;46.85;41.88;;;25.90;99.90;;;;;;5055363;28;20025;-65
2022/04/07 01:53:57;;;;;;;47.70;41.05;;;25.90;99.90;;;;;;5055449;28;20417;-65
2022/04/07 01:56:25;;;;;;;44.45;39.78;;;25.90;99.90;;;;;;5054895;28;20036;-65
2022/04/07 01:58:53;;;;;;;41.63;37.15;;;25.80;99.90;;;;;;5054833;28;20037;-65
2022/04/07 02:01:19;;;;;;;39.08;34.92;;;25.90;99.90;;;;;;5054625;28;20028;-65
2022/04/07 02:03:46;;;;;;;36.50;32.83;;;25.90;99.90;;;;;;5053740;28;20493;-67
2022/04/07 02:06:17;;;;;;;36.95;33.00;;;25.90;99.90;;;;;;5054657;28;20044;-66
2022/04/07 02:08:45;;;;;;;39.10;33.80;;;26.00;99.90;;;;;;5054495;28;20104;-65
2022/04/07 02:11:12;;;;;;;37.13;33.28;;;26.10;99.90;;;;;;5055037;28;20057;-65
2022/04/07 02:13:40;;;;;;;36.22;32.33;;;26.10;99.90;;;;;;5048573;28;20024;-65
2022/04/07 02:16:08;;;;;;;35.70;32.00;;;26.10;99.90;;;;;;5047557;28;20037;-65
2022/04/07 02:18:36;;;;;;;37.97;30.85;;;26.10;99.90;;;;;;5049206;28;20028;-64
2022/04/07 02:21:03;;;;;;;37.30;33.47;;;26.10;99.90;;;;;;5054632;28;20036;-65
2022/04/07 02:23:34;;;;;;;37.47;33.45;;;26.20;99.90;;;;;;5045179;28;20111;-65
2022/04/07 02:26:01;;;;;;;37.38;33.40;;;26.20;99.90;;;;;;5045554;28;20831;-65
2022/04/07 02:28:28;;;;;;;41.30;36.92;;;26.30;99.90;;;;;;5043249;28;20179;-65
2022/04/07 02:30:54;;;;;;;41.10;36.72;;;26.30;99.90;;;;;;5044484;28;20032;-64
2022/04/07 02:33:21;;;;;;;45.40;37.63;;;26.30;99.90;;;;;;5044828;28;20052;-64
2022/04/07 02:35:47;;;;;;;41.08;36.50;;;26.40;99.90;;;;;;5042714;28;20028;-64
2022/04/07 02:38:14;;;;;;;35.80;31.60;;;26.50;99.90;;;;;;5044268;28;20025;-64
2022/04/07 02:40:41;;;;;;;32.15;28.58;;;26.50;99.90;;;;;;5044548;28;20037;-65
2022/04/07 02:43:08;;;;;;;32.92;29.35;;;26.50;99.90;;;;;;5043053;28;20105;-65
2022/04/07 02:45:35;;;;;;;28.83;25.83;;;26.60;99.90;;;;;;5044117;28;20047;-67
2022/04/07 02:48:01;;;;;;;26.67;23.67;;;26.70;99.90;;;;;;5044620;28;20055;-65
2022/04/07 02:50:28;;;;;;;29.35;24.75;;;26.70;99.90;;;;;;5042939;28;20033;-67
2022/04/07 02:52:55;;;;;;;40.78;29.77;;;26.70;99.90;;;;;;5043732;28;20390;-67
2022/04/07 02:55:22;;;;;;;38.85;29.73;;;26.70;99.90;;;;;;5048290;28;20376;-65
2022/04/07 02:57:48;;;;;;;33.83;26.45;;;26.70;99.90;;;;;;5041931;28;20486;-64
2022/04/07 03:00:15;;;;;;;28.00;22.52;;;26.80;99.90;;;;;;5044336;28;20474;-65
2022/04/07 03:02:42;;;;;;;24.77;22.17;;;26.90;99.90;;;;;;5044436;28;20027;-64
2022/04/07 03:05:09;;;;;;;25.20;21.08;;;26.90;99.90;;;;;;5044357;28;20021;-64
2022/04/07 03:07:36;;;;;;;23.35;20.95;;;26.90;99.90;;;;;;5043024;28;20102;-67
2022/04/07 03:10:03;;;;;;;25.20;18.23;;;26.90;99.90;;;;;;5044079;28;20095;-65
2022/04/07 03:12:30;;;;;;;17.63;13.35;;;27.00;99.90;;;;;;5043608;28;20075;-65
2022/04/07 03:14:56;;;;;;;18.15;13.60;;;27.00;99.90;;;;;;5043578;28;20031;-66
2022/04/07 03:17:23;;;;;;;21.50;18.58;;;27.10;99.90;;;;;;5047404;28;20032;-65
2022/04/07 03:19:50;;;;;;;23.17;19.25;;;27.00;99.90;;;;;;5042886;28;20017;-64
2022/04/07 03:22:18;;;;;;;20.08;17.25;;;27.10;99.90;;;;;;5042748;28;20091;-65
2022/04/07 03:24:46;;;;;;;19.73;15.93;;;27.10;99.90;;;;;;5043957;28;20462;-64
2022/04/07 03:27:13;;;;;;;19.85;16.33;;;27.20;99.90;;;;;;5043605;28;20103;-65
2022/04/07 03:29:39;;;;;;;21.30;16.45;;;27.30;99.90;;;;;;5041538;28;20041;-67
2022/04/07 03:32:07;;;;;;;21.48;15.57;;;27.30;99.90;;;;;;5049131;28;20025;-62
2022/04/07 03:34:34;;;;;;;14.95;13.27;;;27.30;99.90;;;;;;5042643;28;20064;-62
2022/04/07 03:37:01;;;;;;;18.95;14.45;;;27.40;99.90;;;;;;5041457;28;20155;-61
2022/04/07 03:39:28;;;;;;;15.30;13.68;;;27.50;99.90;;;;;;5043926;28;20072;-62
2022/04/07 03:41:55;;;;;;;18.08;15.18;;;27.50;99.90;;;;;;5044293;28;20026;-65
2022/04/07 03:44:22;;;;;;;15.98;13.98;;;27.60;99.90;;;;;;5049238;28;20468;-63
2022/04/07 03:46:49;;;;;;;15.68;12.63;;;27.70;99.90;;;;;;5044302;28;20024;-63
2022/04/07 03:49:16;;;;;;;16.67;11.45;;;27.80;99.90;;;;;;5043699;28;20502;-65
2022/04/07 03:51:42;;;;;;;12.98;9.85;;;27.80;99.90;;;;;;5038903;28;20419;-67
2022/04/07 03:54:09;;;;;;;12.35;9.35;;;27.80;99.90;;;;;;5046429;28;20013;-67
2022/04/07 03:56:35;;;;;;;8.75;7.90;;;27.90;99.90;;;;;;5046114;28;20029;-64
2022/04/07 03:59:02;;;;;;;8.77;7.78;;;27.80;99.90;;;;;;5044487;28;20109;-63
2022/04/07 04:01:29;;;;;;;14.32;9.15;;;27.80;99.90;;;;;;5043766;28;20033;-63
2022/04/07 04:03:56;;;;;;;12.18;8.88;;;27.80;99.90;;;;;;5045442;28;20025;-65
2022/04/07 04:06:23;;;;;;;11.43;9.95;;;27.80;99.90;;;;;;5045003;28;20033;-67
2022/04/07 04:08:50;;;;;;;12.88;8.02;;;27.90;99.90;;;;;;5039682;28;20025;-63
2022/04/07 04:11:16;;;;;;;10.82;7.28;;;27.90;99.90;;;;;;5052393;28;20028;-64
2022/04/07 04:13:43;;;;;;;10.35;8.77;;;27.90;99.90;;;;;;5053527;28;20040;-65
2022/04/07 04:16:10;;;;;;;15.15;9.88;;;28.00;99.90;;;;;;5053151;28;20025;-64
2022/04/07 04:18:36;;;;;;;9.90;8.90;;;28.10;99.90;;;;;;5053721;28;20052;-64
2022/04/07 04:21:03;;;;;;;12.32;8.98;;;28.10;99.90;;;;;;5048670;28;20498;-64
2022/04/07 04:23:30;;;;;;;10.90;8.20;;;28.20;99.90;;;;;;5053099;28;20469;-62
2022/04/07 04:25:56;;;;;;;9.90;8.45;;;28.20;99.90;;;;;;5052268;28;20056;-61
2022/04/07 04:28:23;;;;;;;11.32;8.95;;;28.20;99.90;;;;;;5052983;28;20110;-64
2022/04/07 04:30:50;;;;;;;10.10;7.95;;;28.30;99.90;;;;;;5052747;28;20025;-64
2022/04/07 04:33:16;;;;;;;10.95;9.85;;;28.30;99.90;;;;;;5051416;28;20370;-65
2022/04/07 04:35:44;;;;;;;10.13;9.02;;;28.30;99.90;;;;;;5041677;28;20029;-63
2022/04/07 04:38:10;;;;;;;10.10;9.10;;;28.40;99.90;;;;;;5053100;28;20052;-63
2022/04/07 04:40:37;;;;;;;15.27;9.85;;;28.40;99.90;;;;;;5052338;28;20045;-62
2022/04/07 04:43:04;;;;;;;9.65;8.55;;;28.50;99.90;;;;;;5053802;28;20024;-61
2022/04/07 04:45:30;;;;;;;12.85;8.32;;;28.40;99.90;;;;;;5052620;28;20025;-61
2022/04/07 04:47:57;;;;;;;11.07;9.95;;;28.40;99.90;;;;;;5053819;28;20021;-61
2022/04/07 04:50:25;;;;;;;9.80;7.97;;;28.40;99.90;;;;;;5055413;28;20112;-61
2022/04/07 04:52:51;;;;;;;13.38;8.60;;;28.40;99.90;;;;;;5055623;28;20028;-61
2022/04/07 04:55:19;;;;;;;16.80;9.10;;;28.40;99.90;;;;;;5051879;28;20028;-62
2022/04/07 04:57:45;;;;;;;12.13;9.90;;;28.40;99.90;;;;;;5040698;28;20412;-63
2022/04/07 05:00:13;;;;;;;10.68;9.30;;;28.40;99.90;;;;;;5052291;28;20029;-63
2022/04/07 05:02:42;;;;;;;10.90;9.88;;;28.50;99.90;;;;;;5049730;28;20025;-62
2022/04/07 05:05:09;;;;;;;14.18;10.10;;;28.40;99.90;;;;;;5052985;28;20092;-62
2022/04/07 05:07:36;;;;;;;12.52;10.15;;;28.40;99.90;;;;;;5052513;28;20060;-61
2022/04/07 05:10:06;;;;;;;13.43;10.15;;;28.50;99.90;;;;;;5040665;28;20114;-63
2022/04/07 05:12:33;;;;;;;13.10;8.20;;;28.50;99.90;;;;;;5056453;28;20029;-63
2022/04/07 05:14:59;;;;;;;10.75;8.38;;;28.50;99.90;;;;;;5056271;28;20449;-63
2022/04/07 05:17:26;;;;;;;9.93;8.80;;;28.50;99.90;;;;;;5056299;28;20492;-64
2022/04/07 05:19:53;;;;;;;13.45;9.43;;;28.50;99.90;;;;;;5056024;28;20377;-65
2022/04/07 05:22:19;;;;;;;10.25;8.40;;;28.50;99.90;;;;;;5056193;28;20044;-63
2022/04/07 05:24:48;;;;;;;13.25;8.00;;;28.50;99.90;;;;;;5055449;28;20033;-64
2022/04/07 05:27:16;;;;;;;8.63;7.53;;;28.50;99.90;;;;;;5056013;28;20463;-63
2022/04/07 05:29:43;;;;;;;11.13;8.85;;;28.50;99.90;;;;;;5055930;28;20029;-64
2022/04/07 05:32:09;;;;;;;16.00;8.55;;;28.50;99.90;;;;;;5056020;28;20036;-64
2022/04/07 05:34:36;;;;;;;12.65;7.80;;;28.60;99.90;;;;;;5055934;28;20044;-64
2022/04/07 05:37:03;;;;;;;8.60;7.70;;;28.60;99.90;;;;;;5055855;28;20025;-63
2022/04/07 05:39:29;;;;;;;8.77;7.15;;;28.60;99.90;;;;;;5055445;28;20103;-64
2022/04/07 05:41:56;;;;;;;10.23;7.18;;;28.70;99.90;;;;;;5055202;28;20036;-62
2022/04/07 05:44:25;;;;;;;8.88;7.68;;;28.70;99.90;;;;;;5052566;28;20029;-64
2022/04/07 05:46:52;;;;;;;10.00;8.05;;;28.60;99.90;;;;;;5055630;28;20028;-63
2022/04/07 05:49:19;;;;;;;11.15;8.38;;;28.70;99.90;;;;;;5050493;28;20100;-65
2022/04/07 05:51:50;;;;;;;8.13;7.32;;;28.80;99.90;;;;;;5054464;28;20031;-62
2022/04/07 05:54:18;;;;;;;7.85;7.00;;;28.80;99.90;;;;;;5049036;28;20131;-65
2022/04/07 05:56:47;;;;;;;8.27;7.47;;;28.90;99.90;;;;;;5050147;28;20529;-62
2022/04/07 05:59:14;;;;;;;8.50;7.25;;;29.00;99.90;;;;;;5048665;28;20029;-62
2022/04/07 06:01:41;;;;;;;8.80;7.20;;;29.00;99.90;;;;;;5048334;28;20449;-62
2022/04/07 06:04:07;;;;;;;9.60;7.78;;;29.00;99.90;;;;;;5046555;28;20097;-63
2022/04/07 06:06:34;;;;;;;10.00;8.02;;;29.00;99.90;;;;;;5045325;28;20486;-62
2022/04/07 06:09:01;;;;;;;11.25;8.57;;;29.20;99.90;;;;;;5048707;28;20025;-62
2022/04/07 06:11:27;;;;;;;13.32;8.00;;;29.30;99.90;;;;;;5044991;28;20061;-63
2022/04/07 06:13:54;;;;;;;14.82;9.63;;;29.30;99.90;;;;;;5043945;28;20037;-62
2022/04/07 06:16:21;;;;;;;8.73;7.90;;;29.40;99.90;;;;;;5048538;28;20032;-62
2022/04/07 06:18:48;;;;;;;10.80;8.25;;;29.50;99.90;;;;;;5042658;28;20033;-63
2022/04/07 06:21:15;;;;;;;10.90;7.72;;;29.50;99.90;;;;;;5041628;28;20021;-65
2022/04/07 06:23:42;;;;;;;9.65;7.65;;;29.60;99.90;;;;;;5049575;28;20033;-64
2022/04/07 06:26:09;;;;;;;9.68;8.52;;;29.60;99.90;;;;;;5048481;28;20017;-63
2022/04/07 06:28:35;;;;;;;8.88;7.43;;;29.70;99.90;;;;;;5039336;28;20025;-62
2022/04/07 06:31:02;;;;;;;9.52;7.53;;;29.70;99.90;;;;;;5044173;28;20035;-63
2022/04/07 06:33:29;;;;;;;14.95;8.95;;;29.70;99.90;;;;;;5040845;28;20072;-62
2022/04/07 06:35:58;;;;;;;11.07;8.02;;;29.70;99.90;;;;;;5039606;28;20409;-62
2022/04/07 06:38:25;;;;;;;12.35;9.00;;;29.70;99.90;;;;;;5041468;28;20076;-62
2022/04/07 06:40:52;;;;;;;9.75;8.10;;;29.70;99.90;;;;;;5044059;28;20033;-62
2022/04/07 06:43:21;;;;;;;9.38;8.38;;;29.70;99.90;;;;;;5047098;28;20060;-64
2022/04/07 06:45:48;;;;;;;10.05;8.25;;;29.80;99.90;;;;;;5041870;28;20024;-62
2022/04/07 06:48:15;;;;;;;12.77;8.32;;;29.90;99.90;;;;;;5042191;28;20494;-63
2022/04/07 06:50:42;;;;;;;13.93;9.32;;;30.00;99.90;;;;;;5046431;28;20474;-61
2022/04/07 06:53:08;;;;;;;10.98;8.20;;;30.10;99.90;;;;;;5046511;28;20090;-63
2022/04/07 06:55:38;;;;;;;13.40;8.30;;;30.10;99.90;;;;;;5042446;28;20116;-64
2022/04/07 06:58:06;;;;;;;10.43;8.02;;;30.10;99.90;;;;;;5043630;28;20114;-61
2022/04/07 07:00:36;;;;;;;10.40;8.88;;;30.10;99.90;;;;;;5044185;28;20074;-64
2022/04/07 07:03:04;;;;;;;11.85;8.88;;;30.10;99.90;;;;;;5040591;28;20029;-62
2022/04/07 07:05:34;;;;;;;13.32;9.25;;;30.10;99.90;;;;;;5043999;28;20730;-63
2022/04/07 07:08:22;;;;;;;12.75;9.45;;;30.00;99.90;;;;;;5049003;28;20116;-63
2022/04/07 07:10:50;;;;;;;11.57;9.38;;;30.00;99.90;;;;;;5043001;28;20036;-62
2022/04/07 07:13:21;;;;;;;15.65;9.35;;;29.90;99.90;;;;;;5044596;28;20116;-66
2022/04/07 07:15:48;;;;;;;13.13;9.85;;;29.90;99.90;;;;;;5039680;28;20051;-64
2022/04/07 07:18:16;;;;;;;14.55;9.57;;;30.00;99.90;;;;;;5042713;28;20112;-61
2022/04/07 07:20:43;;;;;;;10.95;9.00;;;30.10;99.90;;;;;;5042614;28;20022;-62
2022/04/07 07:23:10;;;;;;;12.48;9.13;;;30.10;99.90;;;;;;5044214;28;20139;-61
2022/04/07 07:25:37;;;;;;;14.48;9.20;;;30.00;99.90;;;;;;5044450;28;20032;-64
2022/04/07 07:28:05;;;;;;;13.25;9.10;;;30.00;99.90;;;;;;5044473;28;20086;-62
2022/04/07 07:30:31;;;;;;;12.73;8.75;;;30.10;99.90;;;;;;5045148;28;20071;-63
2022/04/07 07:32:58;;;;;;;12.45;8.73;;;30.20;99.90;;;;;;5046003;28;20017;-62
2022/04/07 07:35:25;;;;;;;11.30;8.75;;;30.10;99.90;;;;;;5044084;28;20285;-63
2022/04/07 07:37:55;;;;;;;10.23;8.65;;;30.10;99.90;;;;;;5043823;28;20596;-63
2022/04/07 07:40:24;;;;;;;13.50;8.75;;;30.10;99.90;;;;;;5043440;28;20045;-65
2022/04/07 07:42:55;;;;;;;11.98;9.20;;;30.10;99.90;;;;;;5047276;28;20105;-62
2022/04/07 07:45:23;;;;;;;12.27;9.13;;;30.20;99.90;;;;;;5040991;28;20112;-64
2022/04/07 07:47:51;;;;;;;13.70;9.60;;;30.20;99.90;;;;;;5046181;28;20112;-65
2022/04/07 07:50:21;;;;;;;10.40;8.20;;;30.30;99.90;;;;;;5053039;28;20064;-62
2022/04/07 07:52:48;;;;;;;11.30;9.50;;;30.40;99.90;;;;;;5053122;28;20021;-63
2022/04/07 07:55:15;;;;;;;12.52;9.25;;;30.40;99.90;;;;;;5046937;28;20025;-64
2022/04/07 07:57:42;;;;;;;11.75;9.75;;;30.60;99.90;;;;;;5051316;28;20033;-62
2022/04/07 08:00:10;;;;;;;15.48;11.63;;;30.60;99.90;;;;;;5053197;28;20048;-63
2022/04/07 08:02:38;;;;;;;12.10;9.35;;;30.80;99.90;;;;;;5053521;28;20028;-64
2022/04/07 08:05:07;;;;;;;12.95;8.52;;;30.70;99.90;;;;;;5053354;28;20033;-62
2022/04/07 08:07:38;;;;;;;10.82;8.73;;;30.70;99.90;;;;;;5034941;28;20298;-62
2022/04/07 08:10:05;;;;;;;10.50;8.82;;;30.60;99.90;;;;;;5052387;28;20110;-64
2022/04/07 08:12:31;;;;;;;12.23;8.38;;;30.60;99.90;;;;;;5053781;28;20025;-63
2022/04/07 08:14:58;;;;;;;11.30;8.82;;;30.60;99.90;;;;;;5053084;28;20482;-65
2022/04/07 08:17:25;;;;;;;12.93;9.45;;;30.60;99.90;;;;;;5052839;28;20033;-65
2022/04/07 08:19:51;;;;;;;13.52;9.85;;;30.60;99.90;;;;;;5050652;28;20474;-62
2022/04/07 08:22:18;;;;;;;13.70;9.23;;;30.50;99.90;;;;;;5052829;28;20029;-63
2022/04/07 08:24:45;;;;;;;14.80;9.13;;;30.40;99.90;;;;;;5056035;28;20067;-62
2022/04/07 08:27:14;;;;;;;10.23;8.55;;;30.40;99.90;;;;;;5056339;28;20037;-63
2022/04/07 08:29:41;;;;;;;12.32;8.60;;;30.40;99.90;;;;;;5056113;28;20421;-65
2022/04/07 08:32:08;;;;;;;15.55;9.07;;;30.40;99.90;;;;;;5055973;28;20033;-61
2022/04/07 08:34:35;;;;;;;14.60;10.10;;;30.50;99.90;;;;;;5055908;28;20474;-62
2022/04/07 08:37:03;;;;;;;17.15;10.57;;;30.60;99.90;;;;;;5056912;28;20029;-62
2022/04/07 08:39:30;;;;;;;17.10;10.48;;;30.60;99.90;;;;;;5046124;28;20021;-62
2022/04/07 08:41:58;;;;;;;12.38;8.63;;;30.60;99.90;;;;;;5052436;28;20553;-61
2022/04/07 08:44:31;;;;;;;14.85;11.23;;;30.60;99.90;;;;;;5036828;28;20104;-62
2022/04/07 08:46:59;;;;;;;14.18;9.70;;;30.50;99.90;;;;;;5041832;28;20470;-61
2022/04/07 08:49:31;;;;;;;13.30;9.70;;;30.70;99.90;;;;;;5047212;28;20459;-62
2022/04/07 08:51:59;;;;;;;11.23;9.40;;;30.60;99.90;;;;;;5047991;28;20025;-61
2022/04/07 08:54:25;;;;;;;9.65;8.65;;;30.60;99.90;;;;;;5056362;28;20428;-62
2022/04/07 08:56:52;;;;;;;13.55;9.38;;;30.60;99.90;;;;;;5056490;28;20100;-62
2022/04/07 08:59:22;;;;;;;12.10;9.15;;;30.60;99.90;;;;;;5048475;28;20021;-61
2022/04/07 09:01:48;;;;;;;15.02;9.52;;;30.60;99.90;;;;;;5040049;28;20021;-62
2022/04/07 09:04:15;;;;;;;12.32;9.27;;;30.70;99.90;;;;;;5040732;28;20029;-62
2022/04/07 09:06:43;;;;;;;18.88;11.50;;;30.70;99.90;;;;;;5058957;28;20363;-62
2022/04/07 09:09:18;;;;;;;10.57;8.82;;;30.70;99.90;;;;;;5052071;28;20433;-62
2022/04/07 09:11:45;;;;;;;14.90;10.43;;;30.80;99.90;;;;;;5035497;28;20044;-61
2022/04/07 09:14:13;;;;;;;12.70;9.73;;;30.70;99.90;;;;;;5039259;28;20517;-62
2022/04/07 09:16:40;;;;;;;10.00;9.00;;;30.80;99.90;;;;;;5036170;28;20014;-62
2022/04/07 09:19:08;;;;;;;10.50;8.65;;;30.70;99.90;;;;;;5035822;28;20029;-62
2022/04/07 09:21:36;;;;;;;11.20;8.40;;;30.80;99.90;;;;;;5048269;28;20067;-59
2022/04/07 09:24:05;;;;;;;13.18;8.93;;;30.80;99.90;;;;;;5044654;28;20063;-61
2022/04/07 09:26:35;;;;;;;9.93;7.80;;;30.80;99.90;;;;;;5037239;28;20018;-60
2022/04/07 09:29:09;;;;;;;11.02;7.60;;;30.80;99.90;;;;;;5035574;28;20533;-61
2022/04/07 09:31:39;;;;;;;15.82;9.85;;;30.80;99.90;;;;;;5037587;28;20041;-60
2022/04/07 09:34:06;;;;;;;10.40;9.30;;;30.80;99.90;;;;;;5054283;28;20032;-60
2022/04/07 09:36:33;;;;;;;10.95;8.50;;;30.80;99.90;;;;;;5047170;28;20471;-63
2022/04/07 09:39:01;;;;;;;9.48;7.85;;;30.80;99.90;;;;;;5056095;28;20025;-64
2022/04/07 09:41:30;;;;;;;11.15;8.68;;;30.80;99.90;;;;;;5056264;28;20179;-65
2022/04/07 09:43:58;;;;;;;20.00;12.20;;;30.80;99.90;;;;;;5054616;28;20139;-63
2022/04/07 09:46:30;;;;;;;26.98;17.73;;;30.80;99.90;;;;;;5040111;28;20202;-63
2022/04/07 09:49:00;;;;;;;12.63;8.82;;;30.70;99.90;;;;;;5038230;28;20029;-62
2022/04/07 09:51:28;;;;;;;14.02;9.23;;;30.70;99.90;;;;;;5049923;28;20053;-63
2022/04/07 09:53:56;;;;;;;10.68;9.30;;;30.60;99.90;;;;;;5054785;28;20424;-62
2022/04/07 09:56:28;;;;;;;14.40;9.05;;;30.60;99.90;;;;;;5035438;28;20029;-62
2022/04/07 09:58:55;;;;;;;;;;;30.60;99.90;;;;;;5045498;28;20148;-63
2022/04/07 10:01:23;;;;;;;14.35;11.60;;;30.60;99.90;;;;;;5048723;28;19909;-62
2022/04/07 10:03:52;;;;;;;24.02;16.42;;;30.50;99.90;;;;;;5055232;28;20090;-63
2022/04/07 10:06:20;;;;;;;30.25;18.55;;;30.40;99.90;;;;;;5050902;28;20040;-63
2022/04/07 10:08:50;;;;;;;30.10;20.77;;;30.30;99.90;;;;;;5048656;28;20047;-62
2022/04/07 10:11:17;;;;;;;27.00;17.25;;;30.30;99.90;;;;;;5054982;28;20028;-62
2022/04/07 10:13:46;;;;;;;16.65;12.32;;;30.30;99.90;;;;;;5054612;28;20017;-63
2022/04/07 10:16:16;;;;;;;22.52;15.70;;;30.30;99.90;;;;;;5054533;28;20032;-62
2022/04/07 10:19:08;;;;;;;20.13;13.13;;;30.30;99.90;;;;;;5053801;28;20431;-63
2022/04/07 10:21:56;;;;;;;19.83;13.27;;;30.30;99.90;;;;;;5053405;28;20065;-63
2022/04/07 10:24:34;;;;;;;24.75;14.65;;;30.30;99.90;;;;;;5051895;28;20481;-62
2022/04/07 10:27:03;;;;;;;21.20;12.43;;;30.30;99.90;;;;;;5048055;28;20071;-62
2022/04/07 10:29:30;;;;;;;25.48;15.25;;;30.30;99.90;;;;;;5041652;28;20029;-63
2022/04/07 10:32:18;;;;;;;21.38;16.55;;;30.30;99.90;;;;;;5046010;28;20029;-62
2022/04/07 10:34:59;;;;;;;35.50;22.52;;;30.20;99.90;;;;;;5072320;28;20104;-63
2022/04/07 10:37:31;;;;;;;27.02;18.95;;;30.30;99.90;;;;;;5060019;28;20033;-64
2022/04/07 10:40:37;;;;;;;27.65;18.73;;;30.10;99.90;;;;;;5037831;28;20053;-64
2022/04/07 10:43:06;;;;;;;29.98;18.10;;;30.10;99.90;;;;;;5047953;28;20025;-68
2022/04/07 10:45:35;;;;;;;29.65;18.67;;;30.10;99.90;;;;;;5037841;28;20494;-61
2022/04/07 10:48:25;;;;;;;26.83;18.25;;;30.10;99.90;;;;;;5033261;28;20109;-61
2022/04/07 10:50:54;;;;;;;24.90;15.70;;;30.20;99.90;;;;;;5033726;28;20029;-63
2022/04/07 10:53:24;;;;;;;23.60;13.93;;;30.10;99.90;;;;;;5041189;28;20030;-61
2022/04/07 10:55:54;;;;;;;25.58;15.82;;;30.10;99.90;;;;;;5035614;28;20026;-61
2022/04/07 10:58:21;;;;;;;25.45;15.85;;;30.00;99.90;;;;;;5033900;28;20463;-62
2022/04/07 11:00:48;;;;;;;33.55;22.00;;;30.10;99.90;;;;;;5033915;28;20600;-60
2022/04/07 11:03:16;;;;;;;74.53;58.97;;;30.10;99.90;;;;;;5044626;28;20051;-61
2022/04/07 11:05:53;;;;;;;60.03;39.20;;;30.00;99.90;;;;;;5033822;28;20108;-62
2022/04/07 11:08:22;;;;;;;71.50;44.67;;;29.90;99.90;;;;;;5037137;28;20029;-59
2022/04/07 11:10:50;;;;;;;52.47;30.50;;;29.90;99.90;;;;;;5035453;28;20447;-61
2022/04/07 11:13:17;;;;;;;52.60;32.85;;;29.80;99.90;;;;;;5045003;28;20037;-60
2022/04/07 11:16:03;;;;;;;51.78;33.50;;;29.80;99.90;;;;;;5034768;28;20029;-60
2022/04/07 11:18:55;;;;;;;72.97;44.00;;;29.70;99.90;;;;;;5051974;28;20350;-61
2022/04/07 11:21:22;;;;;;;70.15;41.53;;;29.70;99.90;;;;;;5045277;28;20047;-61
2022/04/07 11:23:52;;;;;;;59.65;36.65;;;29.70;99.90;;;;;;5053627;28;20086;-63
2022/04/07 11:26:24;;;;;;;68.28;39.58;;;29.70;99.90;;;;;;5052950;28;20342;-61
2022/04/07 11:29:11;;;;;;;54.80;33.30;;;29.70;99.90;;;;;;5041997;28;20515;-62
2022/04/07 11:31:45;;;;;;;45.20;27.77;;;29.70;99.90;;;;;;5042692;28;20026;-60
2022/04/07 11:34:51;;;;;;;39.03;24.40;;;29.70;99.90;;;;;;5044272;28;20056;-62
2022/04/07 11:37:19;;;;;;;35.55;19.48;;;29.60;99.90;;;;;;5042580;28;20021;-60
2022/04/07 11:39:51;;;;;;;35.55;18.13;;;29.60;99.90;;;;;;5042195;28;20029;-60
2022/04/07 11:42:20;;;;;;;39.72;20.42;;;29.60;99.90;;;;;;5042555;28;20017;-61
2022/04/07 11:44:47;;;;;;;67.03;41.72;;;29.60;99.90;;;;;;5041585;28;20029;-59
2022/04/07 11:47:31;;;;;;;39.20;23.20;;;29.50;99.90;;;;;;5048168;28;20020;-60
2022/04/07 11:49:58;;;;;;;36.33;19.30;;;29.50;99.90;;;;;;5053506;28;20385;-61
2022/04/07 11:52:28;;;;;;;30.90;17.58;;;29.50;99.90;;;;;;5047150;28;20535;-61
2022/04/07 11:54:57;;;;;;;32.35;20.55;;;29.50;99.90;;;;;;5046670;28;20022;-62
2022/04/07 11:57:25;;;;;;;87.50;59.85;;;29.50;99.90;;;;;;5045192;28;20462;-62
2022/04/07 11:59:57;;;;;;;98.22;64.55;;;29.50;99.90;;;;;;5045977;28;20025;-62
2022/04/07 12:02:24;;;;;;;114.05;73.68;;;29.50;99.90;;;;;;5046752;28;20100;-61
2022/04/07 12:05:03;;;;;;;101.57;57.55;;;29.50;99.90;;;;;;5053989;28;20033;-60
2022/04/07 12:07:30;;;;;;;71.13;40.90;;;29.60;99.90;;;;;;5047435;28;20079;-62
2022/04/07 12:10:06;;;;;;;70.70;39.50;;;29.60;99.90;;;;;;5045911;28;20437;-62
2022/04/07 12:12:36;;;;;;;70.05;35.20;;;29.60;99.90;;;;;;5049042;28;20032;-60
2022/04/07 12:15:03;;;;;;;57.42;33.63;;;29.60;99.90;;;;;;5042161;28;20021;-61
2022/04/07 12:17:34;;;;;;;62.63;33.08;;;29.60;99.90;;;;;;5046573;28;20032;-61
2022/04/07 12:20:01;;;;;;;60.63;33.70;;;29.60;99.90;;;;;;5049214;28;20029;-61
2022/04/07 12:22:32;;;;;;;55.03;35.15;;;29.50;99.90;;;;;;5047369;28;20257;-63
2022/04/07 12:25:03;;;;;;;65.43;36.22;;;29.50;99.90;;;;;;5048237;28;20107;-62
2022/04/07 12:27:32;;;;;;;48.63;30.20;;;29.50;99.90;;;;;;5046978;28;20036;-64
2022/04/07 12:30:01;;;;;;;39.35;26.67;;;29.50;99.90;;;;;;5040133;28;20600;-64
2022/04/07 12:32:43;;;;;;;41.30;26.38;;;29.50;99.90;;;;;;5042428;28;20095;-63
2022/04/07 12:35:11;;;;;;;45.25;28.15;;;29.50;99.90;;;;;;5049268;28;20021;-64
2022/04/07 12:37:40;;;;;;;43.88;28.77;;;29.50;99.90;;;;;;5047797;28;20104;-64
2022/04/07 12:40:10;;;;;;;38.85;25.15;;;29.50;99.90;;;;;;5048320;28;20057;-66